24 Datensätze sind 1 Tag. Aufzeichnung ab 07. Oktober 2014.
Werte (Summe von Anzahl und Position darf nicht größer sein als mögliche Datensätze).
Anzahl:
Position: Summe:
\ 17305 Datensätze möglich.
  20 letzte Aufzeichnungen
gezeigte Daten 20 ab Position 1    Summe der Auswahl = 21
08.12.2016 / 03:30 Uhr bis 08.12.2016 / 22:30 Uhr
Regenmenge 0 Liter

Datum/Zeit Temp. Taupunkt Luftfeuchte Wind speed Wind böhe Wind Temp. Regen Summe Luftdruck
08.12.2016 | 23:30 Uhr 6.0C -0.7C 62% 0.0 kmh 0.1kmh 4.7C 0.0mm 1008.0986mBar/hPa
08.12.2016 | 22:30 Uhr 7.0C -0.2C 60% 8.2 kmh 1.1kmh 7.3C 0.0mm 1008.0986mBar/hPa
08.12.2016 | 21:30 Uhr 6.8C -0.4C 60% 0.0 kmh 0.5kmh 7.1C 0.0mm 1008.4736mBar/hPa
08.12.2016 | 20:30 Uhr 6.1C -0.4C 63% 0.0 kmh 0.0kmh 6.3C 0.0mm 1009.1611mBar/hPa
08.12.2016 | 19:30 Uhr 5.6C -0.9C 63% 0.0 kmh 0.0kmh 4.4C 0.0mm 1008.4736mBar/hPa
08.12.2016 | 18:30 Uhr 6.0C -1.0C 61% 0.0 kmh 0.0kmh 5.0C 0.0mm 1009.2236mBar/hPa
08.12.2016 | 17:30 Uhr 6.5C -1.6C 56% 0.0 kmh 0.0kmh 5.7C 0.0mm 1009.0361mBar/hPa
08.12.2016 | 16:30 Uhr 6.5C -1.4C 57% 4.1 kmh 0.1kmh 5.2C 0.0mm 1009.0986mBar/hPa
08.12.2016 | 15:30 Uhr 7.5C -1.2C 54% 1.1 kmh 0.2kmh 6.1C 0.0mm 1008.9736mBar/hPa
08.12.2016 | 14:30 Uhr 9.2C -1.2C 48% 7.1 kmh 0.2kmh 9.4C 0.0mm 1008.9111mBar/hPa
08.12.2016 | 13:30 Uhr 9.4C 1.1C 56% 0.0 kmh 0.0kmh 10.2C 0.0mm 1008.9111mBar/hPa
08.12.2016 | 12:30 Uhr 9.6C 0.7C 54% 7.1 kmh 1.5kmh 11.6C 0.0mm 1009.4111mBar/hPa
08.12.2016 | 11:30 Uhr 7.7C 2.0C 67% 1.1 kmh 0.7kmh 9.6C 0.0mm 1010.0986mBar/hPa
08.12.2016 | 10:30 Uhr 5.4C 1.7C 77% kmh kmh C 0.0mm 1010.5986mBar/hPa
08.12.2016 | 09:30 Uhr 4.1C 1.6C 84% kmh kmh C 0.0mm 1011.3486mBar/hPa
08.12.2016 | 08:30 Uhr 2.0C -0.3C 85% kmh kmh C 0.0mm 1011.7861mBar/hPa
08.12.2016 | 07:30 Uhr 1.5C -1.1C 83% kmh kmh C 0.0mm 1011.4111mBar/hPa
08.12.2016 | 06:30 Uhr 1.7C -0.7C 84% kmh kmh C 0.0mm 1011.4111mBar/hPa
08.12.2016 | 05:30 Uhr 2.0C -0.4C 84% kmh kmh C 0.0mm 1011.6611mBar/hPa
08.12.2016 | 04:30 Uhr 2.3C -0.3C 83% kmh kmh C 0.0mm 1011.8486mBar/hPa